Terminal Aerodrome Forecast
Issued by NWS

Home | Current Version | Previous Version | Text Only | Print | Product List | Glossary On
Versions: 1 2 3 4 5 6 7 8 9 10 11 12 13 14 15 16
000
FTUS43 KBIS 270523
TAFJMS
TAF
KJMS 270523Z 2706/2806 17006KT P6SM SKC
     FM271000 18008KT P6SM FEW130 SCT200 WS020/20035KT
     FM271200 18009KT P6SM FEW130 FEW150
     FM271400 17013KT P6SM FEW120 SCT250
     FM280300 14011G20KT P6SM VCTS SCT050 BKN100CB=

USA.gov is the U.S. government's official web portal to all federal, state and local government web resources and services.